East Jordan, MI

11:54 AM EDT on August 03, 2015 (GMT -0400)
3.4 mi SSW of Boyne City | | Change Station
CLOSE
Current Station
Personal Weather Station
Location: Boyne City, MI
Elevation: 820 ft
Nearby Weather Stations

Elev 820 ft 45.17 °N, 85.04 °W | Updated 9 seconds ago

Overcast
Overcast
69.8 °F
Feels Like 69.8 °F
N
4.5
Wind Variable Wind from WNW
Gusts 7.6 mph

Today
High -- | Low -- °F
--% Chance of Precip.
Yesterday
High -- | Low -- °F
Precip. -- in
6:27 AM 9:05 PM
Waning Gibbous, 86% visible
Pressure 29.78 in
Visibility 10.0 miles
Clouds Overcast 8500 ft
Dew Point 58 °F
Humidity 65%
Rainfall 0.00 in
Snow Depth Not available.
UV 2 out of 12
Pollen 5.50 out of 12
Air Quality Not available.
Flu Activity Not available.
METAR KCVX 031535Z AUTO 29008KT 10SM OVC085 20/14 A2978 RMK AO2 T02000139

More Conditions Fewer Conditions

Pressure 29.78 in
Visibility 10.0 miles
Clouds Overcast 8500 ft
Dew Point 58 °F
Humidity 65%
Rainfall 0.00 in
Snow Depth Not available.
UV 2 out of 12
Pollen 5.50 out of 12
Air Quality Not available.
Flu Activity Not available.
METAR KCVX 031535Z AUTO 29008KT 10SM OVC085 20/14 A2978 RMK AO2 T02000139

More Conditions Fewer Conditions

Nowcast | as of 10:00 am EDT on August 3, 2015

At 11 am...mostly cloudy. Chance of showers. Temperature 66. Northwest winds 12 mph. At 1 PM...mostly cloudy. Chance of showers. Temperature 67. West winds 12 mph. At 3 PM...mostly cloudy. Scattered showers and isolated thunderstorms. Temperature 68. West winds 12 mph. At 5 PM...mostly cloudy. Scattered showers and isolated thunderstorms. Temperature 69. West winds 12 mph.

×

10-Day Weather Forecast

×

Almanac

Astronomy

Aug. 03, 2015 Rise Set
Actual Time
Civil Twilight
Nautical Twilight
Astronomical Twilight
Moon
Length of Visible Light
Length of Day
Tomorrow will be .
, % of the Moon is Illuminated

Today's Extremes

State Highs State Lows

Community

WunderPhotos

Upload Photos

1,843,645 photos uploaded!

WunderBlogs® & News

Nearby

Air Quality

  Air Quality AQ Index Pollutant
Not available.

Snow Depth

Station Depth Elevation

Earthquake Activity

City Distance Mag. Time & Date
Minimum magnitude displayed is 2.5.

Coastal Water Temperatures

Place Temperature

Stations

Nearby Weather Stations

Station Location Temp. Windchill Dew Point Humidity Wind Precip. Elev Updated Type